Página principal
METAR-TAF:

METAR-TAF

Aeroportos :

Ancara Esenboğa, Turquia

Aeroporto Internacional de Ancara Esenboğa

latitude: 40-07N, longitude: 032-59E, altura: 953 m

Observação actual do tempo

O boletim foi feito há 46 minutos, às 22:50 UTC
Vento 1 kt com direcção variável
Temperatura 4°C
Humidade 70%
Pressão 1021 hPa
Visibilidade 10 km ou mais
sem nuvens abaixo de 1500 metros e sem cumulonimbus

METAR: LTAC 192250Z VRB01KT CAVOK 04/M01 Q1021 NOSIG RMK RWY21L 35003KT RWY03L VRB01KT RWY21R 00000KT

Hora: 02:36 (23:36 UTC)

Previsão

O boletim foi feito há 6 horas e 56 minutos, às 16:40 UTC
Previsão válida de 19 às 18 UTC a 20 às 18 UTC
Vento 2 kt com direcção variável
Visibilidade 10 km ou mais
sem nuvens abaixo de 1500 metros e sem cumulonimbus

TAF: LTAC 191640Z 1918/2018 VRB02KT CAVOK

Observações e previsões do tempo de mais de 4000 aeroportos (mensagens METAR e TAF).

As estações disponíveis são os pontos amarelos e vermelhos sobre o mapa.

Mova o rato sobre o mapa para ver o nome da estação.

Depois clique no ponto para visualizar as observações e previsões meteorológicas.

Para alterar o mapa : clique nos botões verdes com uma cruz preta para aumentar o zoom; no botão verde com uma pitada de zoom; ou nas setas verdes para mapas adjacentes.


METAR-TAF: